createdAt,value
2018-07-26T00:00:58.174Z,9.03
2018-07-26T00:03:26.156Z,10.00
2018-07-26T00:05:54.355Z,8.70
2018-07-26T00:08:22.384Z,9.23
2018-07-26T00:10:50.331Z,10.43
2018-07-26T00:13:18.276Z,9.70
2018-07-26T00:15:46.257Z,9.27
2018-07-26T00:18:14.358Z,10.33
2018-07-26T00:20:42.648Z,9.70
2018-07-26T00:23:10.917Z,9.40
2018-07-26T00:25:39.067Z,10.13
2018-07-26T00:28:07.251Z,10.40
2018-07-26T00:30:35.506Z,8.73
2018-07-26T00:33:03.907Z,8.00
2018-07-26T00:35:32.084Z,8.70
2018-07-26T00:38:00.044Z,8.63
2018-07-26T00:40:28.220Z,9.13
2018-07-26T00:42:56.198Z,9.63
2018-07-26T00:45:24.280Z,8.53
2018-07-26T00:47:52.255Z,8.17
2018-07-26T00:50:20.347Z,8.83
2018-07-26T00:52:48.366Z,9.07
2018-07-26T00:55:16.334Z,9.10
2018-07-26T00:57:44.652Z,8.70
2018-07-26T01:00:12.761Z,8.00
2018-07-26T01:02:40.858Z,9.03
2018-07-26T01:05:08.926Z,8.73
2018-07-26T01:07:37.329Z,8.57
2018-07-26T01:10:06.525Z,9.03
2018-07-26T01:12:35.000Z,8.30
2018-07-26T01:15:04.125Z,8.60
2018-07-26T01:17:32.510Z,9.90
2018-07-26T01:20:00.814Z,7.90
2018-07-26T01:22:28.779Z,9.73
2018-07-26T01:24:57.968Z,8.67
2018-07-26T01:27:26.301Z,8.77
2018-07-26T01:29:54.480Z,9.87
2018-07-26T01:32:22.446Z,9.13
2018-07-26T01:34:50.457Z,8.40
2018-07-26T01:37:18.545Z,8.77
2018-07-26T01:39:46.517Z,9.37
2018-07-26T01:42:14.493Z,8.67
2018-07-26T01:44:42.467Z,9.63
2018-07-26T01:47:10.692Z,9.27
2018-07-26T01:49:38.780Z,9.27
2018-07-26T01:52:07.177Z,8.67
2018-07-26T01:54:35.529Z,9.10
2018-07-26T01:57:04.090Z,10.33
2018-07-26T01:59:32.213Z,8.50
2018-07-26T02:02:00.174Z,8.83
2018-07-26T02:04:28.110Z,8.53
2018-07-26T02:07:03.319Z,9.50
2018-07-26T02:09:31.358Z,8.47
2018-07-26T02:11:59.316Z,8.47
2018-07-26T02:14:32.709Z,7.43
2018-07-26T02:17:00.740Z,8.73
2018-07-26T02:19:28.747Z,9.17
2018-07-26T02:21:56.708Z,7.13
2018-07-26T02:24:25.105Z,7.70
2018-07-26T02:26:53.104Z,8.33
2018-07-26T02:29:21.116Z,8.03
2018-07-26T02:31:49.112Z,7.10
2018-07-26T02:34:17.132Z,8.60
2018-07-26T02:36:45.169Z,8.27
2018-07-26T02:39:13.161Z,7.50
2018-07-26T02:41:41.186Z,8.23
2018-07-26T02:44:09.389Z,7.33
2018-07-26T02:46:37.507Z,7.97
2018-07-26T02:49:05.893Z,8.87
2018-07-26T02:51:34.255Z,8.07
2018-07-26T02:54:02.295Z,8.27
2018-07-26T02:56:30.393Z,7.67
2018-07-26T02:58:58.295Z,9.77
2018-07-26T03:01:26.378Z,8.73
2018-07-26T03:03:54.508Z,8.40
2018-07-26T03:06:22.464Z,8.83
2018-07-26T03:08:50.427Z,9.37
2018-07-26T03:11:18.376Z,9.40
2018-07-26T03:13:46.322Z,8.17
2018-07-26T03:16:14.268Z,8.80
2018-07-26T03:18:42.252Z,8.97
2018-07-26T03:21:10.353Z,8.70
2018-07-26T03:23:38.502Z,8.90
2018-07-26T03:26:06.727Z,8.10
2018-07-26T03:28:35.080Z,7.40
2018-07-26T03:31:03.784Z,8.60
2018-07-26T03:33:31.886Z,7.97
2018-07-26T03:35:59.859Z,7.70
2018-07-26T03:38:27.848Z,8.03
2018-07-26T03:40:55.912Z,7.80
2018-07-26T03:43:23.950Z,8.10
2018-07-26T03:45:52.984Z,7.50
2018-07-26T03:48:20.901Z,7.70
2018-07-26T03:50:48.897Z,7.80
2018-07-26T03:53:16.839Z,7.80
2018-07-26T03:55:44.823Z,8.50
2018-07-26T03:58:12.818Z,9.50
2018-07-26T04:00:40.915Z,9.27
2018-07-26T04:03:08.997Z,8.40
2018-07-26T04:05:37.137Z,7.60
2018-07-26T04:08:05.472Z,8.97
2018-07-26T04:10:33.718Z,9.03
2018-07-26T04:13:01.673Z,7.43
2018-07-26T04:15:29.625Z,7.30
2018-07-26T04:18:02.472Z,7.00
2018-07-26T04:20:30.495Z,7.73
2018-07-26T04:22:58.461Z,6.83
2018-07-26T04:25:26.638Z,7.27
2018-07-26T04:27:54.805Z,7.47
2018-07-26T04:30:22.800Z,6.97
2018-07-26T04:32:50.765Z,7.47
2018-07-26T04:35:18.757Z,7.33
2018-07-26T04:37:46.698Z,7.00
2018-07-26T04:40:14.669Z,8.47
2018-07-26T04:42:42.778Z,7.60
2018-07-26T04:45:10.794Z,7.60
2018-07-26T04:47:39.080Z,6.63
2018-07-26T04:50:07.808Z,6.37
2018-07-26T04:52:36.234Z,6.90
2018-07-26T04:55:04.660Z,6.17
2018-07-26T04:57:32.769Z,6.30
2018-07-26T05:00:00.812Z,6.50
2018-07-26T05:02:28.797Z,6.47
2018-07-26T05:04:56.920Z,6.57
2018-07-26T05:07:25.093Z,11.97
2018-07-26T05:09:53.233Z,9.13
2018-07-26T05:12:21.199Z,6.30
2018-07-26T05:14:49.217Z,6.97
2018-07-26T05:17:17.246Z,6.40
2018-07-26T05:19:45.241Z,6.43
2018-07-26T05:22:13.192Z,6.87
2018-07-26T05:24:41.241Z,7.80
2018-07-26T05:27:09.556Z,8.10
2018-07-26T05:29:37.805Z,8.10
2018-07-26T05:32:06.236Z,8.40
2018-07-26T05:34:34.567Z,7.40
2018-07-26T05:37:02.878Z,7.83
2018-07-26T05:39:30.929Z,7.77
2018-07-26T05:41:58.898Z,8.53
2018-07-26T05:44:27.737Z,8.47
2018-07-26T05:46:56.019Z,8.60
2018-07-26T05:49:24.369Z,8.27
2018-07-26T05:51:52.577Z,8.53
2018-07-26T05:54:20.535Z,6.90
2018-07-26T05:56:48.556Z,7.33
2018-07-26T05:59:16.500Z,7.17
2018-07-26T06:01:44.506Z,7.37
2018-07-26T06:04:13.589Z,7.50
2018-07-26T06:06:41.864Z,6.80
2018-07-26T06:09:16.450Z,6.50
2018-07-26T06:11:44.609Z,6.40
2018-07-26T06:14:12.800Z,7.77
2018-07-26T06:16:40.989Z,7.30
2018-07-26T06:19:09.230Z,6.40
2018-07-26T06:21:37.511Z,6.73
2018-07-26T06:24:06.670Z,6.80
2018-07-26T06:26:34.899Z,7.97
2018-07-26T06:29:03.669Z,7.03
2018-07-26T06:31:35.942Z,7.97
2018-07-26T06:34:04.541Z,8.00
2018-07-26T06:36:33.153Z,6.87
2018-07-26T06:39:02.101Z,6.63
2018-07-26T06:41:30.412Z,9.10
2018-07-26T06:43:59.429Z,7.33
2018-07-26T06:46:27.532Z,7.70
2018-07-26T06:48:55.669Z,7.70
2018-07-26T06:51:24.679Z,8.10
2018-07-26T06:53:53.039Z,8.87
2018-07-26T06:56:21.325Z,8.50
2018-07-26T06:58:49.529Z,7.83
2018-07-26T07:01:18.202Z,8.00
2018-07-26T07:03:48.122Z,8.23
2018-07-26T07:06:17.677Z,7.37
2018-07-26T07:08:46.102Z,7.30
2018-07-26T07:11:15.289Z,7.03
2018-07-26T07:13:43.755Z,7.43
2018-07-26T07:16:17.061Z,7.60
2018-07-26T07:18:45.512Z,8.13
2018-07-26T07:21:15.361Z,8.30
2018-07-26T07:23:43.671Z,8.37
2018-07-26T07:26:17.557Z,8.50
2018-07-26T07:28:47.738Z,7.80
2018-07-26T07:31:17.062Z,7.70
2018-07-26T07:33:45.233Z,8.80
2018-07-26T07:36:13.519Z,7.70
2018-07-26T07:38:41.864Z,8.30
2018-07-26T07:41:13.742Z,7.70
2018-07-26T07:43:43.703Z,6.87
2018-07-26T07:46:12.938Z,7.30
2018-07-26T07:48:41.299Z,7.00
2018-07-26T07:51:09.920Z,6.93
2018-07-26T07:53:38.626Z,5.87
2018-07-26T07:56:06.990Z,6.93
2018-07-26T07:58:36.023Z,7.20
2018-07-26T08:01:05.088Z,7.60
2018-07-26T08:06:08.323Z,6.00
2018-07-26T08:08:36.741Z,6.63
2018-07-26T08:11:07.511Z,7.40
2018-07-26T08:13:35.953Z,6.63
2018-07-26T08:16:05.307Z,6.37
2018-07-26T08:18:33.767Z,5.40
2018-07-26T08:21:02.275Z,5.37
2018-07-26T08:23:36.218Z,5.70
2018-07-26T08:26:04.410Z,4.90
2018-07-26T08:28:40.243Z,7.37
2018-07-26T08:31:08.648Z,6.87
2018-07-26T08:36:18.534Z,6.87
2018-07-26T08:43:56.289Z,6.90
2018-07-26T08:46:33.579Z,6.60
2018-07-26T08:49:01.948Z,7.50
2018-07-26T08:51:30.760Z,6.90
2018-07-26T08:53:59.538Z,7.70
2018-07-26T08:56:28.056Z,8.60
2018-07-26T09:01:38.397Z,8.70
2018-07-26T09:04:08.180Z,8.67
2018-07-26T09:09:24.123Z,9.43
2018-07-26T09:11:52.349Z,9.33
2018-07-26T09:14:20.621Z,7.47
2018-07-26T09:16:52.669Z,6.97
2018-07-26T09:19:20.922Z,5.07
2018-07-26T09:21:49.277Z,4.80
2018-07-26T09:24:17.519Z,5.37
2018-07-26T09:32:12.186Z,6.00
2018-07-26T09:34:51.230Z,6.60
2018-07-26T09:37:20.351Z,5.90
2018-07-26T09:39:53.454Z,6.33
2018-07-26T09:42:21.603Z,6.20
2018-07-26T09:44:50.182Z,6.03
2018-07-26T09:50:05.790Z,5.87
2018-07-26T09:55:16.002Z,6.27
2018-07-26T09:57:54.942Z,5.60
2018-07-26T10:00:29.265Z,5.87
2018-07-26T10:03:01.939Z,4.97
2018-07-26T10:05:30.310Z,5.53
2018-07-26T10:07:59.088Z,5.80
2018-07-26T10:10:27.509Z,4.27
2018-07-26T10:12:56.705Z,5.20
2018-07-26T10:15:27.910Z,6.20
2018-07-26T10:17:58.079Z,5.80
2018-07-26T10:20:26.738Z,4.77
2018-07-26T10:22:56.187Z,5.17
2018-07-26T10:25:26.682Z,6.30
2018-07-26T10:27:54.836Z,4.90
2018-07-26T10:30:23.902Z,3.93
2018-07-26T10:32:52.556Z,4.03
2018-07-26T10:35:21.069Z,5.63
2018-07-26T10:37:49.324Z,4.83
2018-07-26T10:40:17.568Z,5.70
2018-07-26T10:42:46.462Z,5.13
2018-07-26T10:45:16.297Z,4.23
2018-07-26T10:47:47.318Z,5.03
2018-07-26T10:52:57.421Z,5.60
2018-07-26T10:55:25.915Z,5.67
2018-07-26T10:57:58.410Z,5.23
2018-07-26T11:00:27.306Z,5.70
2018-07-26T11:02:56.378Z,5.50
2018-07-26T11:05:24.793Z,4.47
2018-07-26T11:07:53.000Z,4.90
2018-07-26T11:10:23.072Z,4.70
2018-07-26T11:12:51.372Z,4.30
2018-07-26T11:15:25.642Z,5.23
2018-07-26T11:17:53.841Z,4.20
2018-07-26T11:20:26.894Z,4.73
2018-07-26T11:22:56.425Z,4.80
2018-07-26T11:25:25.415Z,4.53
2018-07-26T11:27:54.730Z,4.27
2018-07-26T11:30:23.464Z,4.67
2018-07-26T11:32:51.889Z,4.40
2018-07-26T11:35:20.265Z,6.70
2018-07-26T11:37:48.961Z,4.30
2018-07-26T11:40:17.206Z,4.80
2018-07-26T11:42:45.272Z,3.83
2018-07-26T11:45:13.269Z,4.70
2018-07-26T11:47:42.337Z,4.30
2018-07-26T11:50:13.592Z,12.53
2018-07-26T11:52:42.713Z,5.30
2018-07-26T11:55:11.925Z,4.03
2018-07-26T11:57:40.407Z,8.53
2018-07-26T12:02:50.094Z,5.17
2018-07-26T12:05:18.870Z,4.20
2018-07-26T12:07:56.020Z,4.30
2018-07-26T12:10:24.687Z,3.87
2018-07-26T12:12:53.075Z,4.10
2018-07-26T12:18:04.689Z,4.40
2018-07-26T12:20:33.431Z,3.60
2018-07-26T12:28:14.320Z,4.37
2018-07-26T12:33:20.120Z,9.67
2018-07-26T12:38:25.207Z,4.70
2018-07-26T12:43:30.786Z,4.50
2018-07-26T12:45:58.947Z,5.80
2018-07-26T12:48:27.741Z,4.50
2018-07-26T12:50:56.990Z,5.77
2018-07-26T12:53:30.718Z,19.53
2018-07-26T12:55:58.870Z,5.60
2018-07-26T12:58:27.909Z,6.30
2018-07-26T13:00:56.580Z,5.87
2018-07-26T13:03:25.134Z,6.50
2018-07-26T13:08:34.897Z,7.10
2018-07-26T13:11:03.861Z,6.00
2018-07-26T13:13:37.716Z,5.50
2018-07-26T13:16:07.244Z,8.00
2018-07-26T13:18:40.470Z,6.07
2018-07-26T13:21:08.848Z,6.23
2018-07-26T13:23:38.979Z,5.80
2018-07-26T13:28:45.122Z,5.57
2018-07-26T13:31:13.832Z,5.00
2018-07-26T13:33:42.606Z,5.80
2018-07-26T13:44:18.372Z,5.67
2018-07-26T13:54:47.404Z,6.70
2018-07-26T13:57:18.061Z,6.13
2018-07-26T13:59:51.646Z,5.70
2018-07-26T14:02:29.395Z,5.20
2018-07-26T14:05:04.644Z,6.43
2018-07-26T14:10:15.209Z,5.77
2018-07-26T14:12:44.229Z,6.17
2018-07-26T14:15:22.318Z,6.10
2018-07-26T14:17:54.595Z,4.77
2018-07-26T14:25:58.145Z,5.10
2018-07-26T14:28:30.613Z,4.87
2018-07-26T14:36:30.788Z,5.37
2018-07-26T14:39:08.896Z,4.13
2018-07-26T14:41:41.851Z,4.00
2018-07-26T14:47:00.547Z,4.43
2018-07-26T14:49:42.022Z,5.13
2018-07-26T14:54:53.101Z,4.30
2018-07-26T15:00:04.900Z,4.90
2018-07-26T15:08:05.767Z,4.60
2018-07-26T15:10:34.807Z,5.10
2018-07-26T15:13:04.831Z,4.67
2018-07-26T15:15:35.363Z,5.47
2018-07-26T15:18:05.276Z,4.20
2018-07-26T15:20:36.497Z,3.70
2018-07-26T15:28:27.310Z,4.93
2018-07-26T15:30:55.940Z,4.10
2018-07-26T15:33:24.449Z,4.63
2018-07-26T15:35:52.851Z,4.80
2018-07-26T15:38:24.680Z,4.00
2018-07-26T15:40:53.170Z,5.37
2018-07-26T15:43:21.670Z,4.00
2018-07-26T15:45:50.802Z,3.90
2018-07-26T15:48:27.800Z,4.40
2018-07-26T15:50:58.406Z,4.23
2018-07-26T15:53:33.786Z,4.33
2018-07-26T15:56:02.923Z,4.17
2018-07-26T16:01:19.078Z,4.47
2018-07-26T16:03:47.663Z,5.20
2018-07-26T16:06:17.854Z,4.83
2018-07-26T16:08:46.099Z,4.93
2018-07-26T16:11:14.739Z,4.60
2018-07-26T16:13:43.579Z,4.60
2018-07-26T16:16:21.604Z,4.17
2018-07-26T16:18:51.992Z,4.63
2018-07-26T16:21:21.835Z,4.67
2018-07-26T16:23:57.324Z,4.33
2018-07-26T16:29:07.782Z,4.60
2018-07-26T16:34:21.240Z,4.30
2018-07-26T16:36:49.593Z,4.20
2018-07-26T16:39:19.154Z,4.60
2018-07-26T16:44:50.208Z,3.90
2018-07-26T16:47:20.155Z,4.87
2018-07-26T16:49:49.995Z,5.17
2018-07-26T16:52:18.631Z,5.00
2018-07-26T16:54:46.922Z,5.20
2018-07-26T16:57:15.429Z,4.60
2018-07-26T16:59:43.722Z,4.30
2018-07-26T17:02:13.808Z,4.57
2018-07-26T17:04:42.388Z,4.97
2018-07-26T17:07:14.654Z,5.03
2018-07-26T17:09:45.362Z,5.17
2018-07-26T17:12:18.169Z,4.10
2018-07-26T17:14:46.549Z,4.63
2018-07-26T17:17:15.963Z,5.17
2018-07-26T17:19:44.540Z,5.20
2018-07-26T17:22:14.932Z,4.53
2018-07-26T17:24:45.468Z,5.40
2018-07-26T17:27:13.677Z,5.80
2018-07-26T17:29:41.920Z,4.60
2018-07-26T17:32:10.615Z,5.50
2018-07-26T17:34:43.405Z,5.53
2018-07-26T17:37:11.535Z,5.10
2018-07-26T17:39:40.229Z,5.90
2018-07-26T17:42:09.567Z,4.40
2018-07-26T17:44:38.351Z,5.90
2018-07-26T17:47:07.556Z,5.73
2018-07-26T17:49:36.569Z,6.20
2018-07-26T17:52:09.145Z,5.13
2018-07-26T17:54:39.954Z,4.40
2018-07-26T17:57:09.447Z,5.30
2018-07-26T17:59:38.750Z,5.27
2018-07-26T18:02:08.290Z,5.20
2018-07-26T18:04:37.694Z,5.00
2018-07-26T18:07:09.199Z,5.50
2018-07-26T18:09:38.140Z,5.07
2018-07-26T18:12:07.546Z,5.77
2018-07-26T18:14:36.073Z,6.10
2018-07-26T18:17:08.307Z,6.10
2018-07-26T18:19:37.207Z,5.27
2018-07-26T18:22:13.151Z,5.40
2018-07-26T18:24:42.053Z,5.20
2018-07-26T18:27:10.650Z,4.77
2018-07-26T18:29:38.871Z,5.37
2018-07-26T18:32:07.287Z,6.07
2018-07-26T18:34:35.886Z,5.70
2018-07-26T18:37:04.669Z,5.30
2018-07-26T18:39:33.127Z,5.40
2018-07-26T18:42:03.538Z,4.80
2018-07-26T18:44:32.845Z,5.00
2018-07-26T18:47:02.157Z,5.43
2018-07-26T18:49:30.291Z,5.13
2018-07-26T18:51:58.456Z,9.27
2018-07-26T18:54:30.554Z,5.23
2018-07-26T18:56:58.658Z,5.87
2018-07-26T18:59:26.743Z,6.37
2018-07-26T19:01:55.054Z,5.10
2018-07-26T19:04:23.181Z,5.17
2018-07-26T19:06:51.423Z,6.60
2018-07-26T19:09:19.470Z,6.20
2018-07-26T19:11:47.557Z,5.23
2018-07-26T19:14:15.892Z,5.63
2018-07-26T19:16:44.113Z,6.93
2018-07-26T19:19:12.259Z,5.23
2018-07-26T19:21:40.555Z,5.70
2018-07-26T19:24:08.866Z,5.80
2018-07-26T19:26:37.305Z,6.37
2018-07-26T19:29:05.802Z,5.57
2018-07-26T19:31:34.303Z,6.80
2018-07-26T19:34:02.886Z,6.17
2018-07-26T19:36:31.043Z,5.70
2018-07-26T19:38:59.156Z,6.47
2018-07-26T19:41:27.295Z,5.97
2018-07-26T19:43:55.496Z,6.37
2018-07-26T19:46:24.238Z,6.40
2018-07-26T19:48:52.245Z,6.97
2018-07-26T19:51:20.237Z,7.17
2018-07-26T19:53:48.794Z,5.93
2018-07-26T19:56:16.706Z,6.10
2018-07-26T19:58:44.777Z,5.63
2018-07-26T20:01:12.714Z,7.20
2018-07-26T20:03:41.718Z,8.50
2018-07-26T20:06:10.074Z,6.80
2018-07-26T20:08:38.532Z,7.40
2018-07-26T20:11:08.264Z,6.77
2018-07-26T20:13:39.329Z,6.60
2018-07-26T20:16:07.898Z,6.43
2018-07-26T20:18:36.715Z,7.07
2018-07-26T20:21:05.173Z,6.53
2018-07-26T20:23:33.925Z,6.47
2018-07-26T20:26:02.166Z,7.40
2018-07-26T20:28:30.312Z,7.30
2018-07-26T20:30:59.193Z,6.63
2018-07-26T20:33:28.602Z,6.33
2018-07-26T20:36:01.324Z,8.00
2018-07-26T20:38:30.076Z,6.57
2018-07-26T20:40:58.117Z,6.77
2018-07-26T20:43:28.244Z,6.70
2018-07-26T20:45:56.974Z,6.57
2018-07-26T20:48:27.782Z,7.57
2018-07-26T20:50:55.686Z,6.83
2018-07-26T20:53:24.395Z,6.30
2018-07-26T20:55:55.372Z,7.70
2018-07-26T20:58:24.470Z,6.87
2018-07-26T21:00:53.148Z,7.30
2018-07-26T21:03:21.150Z,6.83
2018-07-26T21:05:49.564Z,6.90
2018-07-26T21:08:19.395Z,8.10
2018-07-26T21:10:47.951Z,6.43
2018-07-26T21:13:16.458Z,7.33
2018-07-26T21:15:47.877Z,7.50
2018-07-26T21:18:17.398Z,7.53
2018-07-26T21:20:46.016Z,6.97
2018-07-26T21:23:14.840Z,6.63
2018-07-26T21:25:43.348Z,7.13
2018-07-26T21:28:11.909Z,6.73
2018-07-26T21:30:40.814Z,7.20
2018-07-26T21:33:09.981Z,6.60
2018-07-26T21:35:38.733Z,8.17
2018-07-26T21:38:07.489Z,7.20
2018-07-26T21:40:36.660Z,7.57
2018-07-26T21:43:04.957Z,6.37
2018-07-26T21:45:33.757Z,7.20
2018-07-26T21:48:01.761Z,7.10
2018-07-26T21:50:30.346Z,6.73
2018-07-26T21:52:58.886Z,7.13
2018-07-26T21:55:27.150Z,7.10
2018-07-26T21:57:56.495Z,7.37
2018-07-26T22:00:28.995Z,7.00
2018-07-26T22:02:57.207Z,7.30
2018-07-26T22:05:25.494Z,7.50
2018-07-26T22:07:53.823Z,6.80
2018-07-26T22:10:22.107Z,7.90
2018-07-26T22:12:50.354Z,6.70
2018-07-26T22:15:18.940Z,7.50
2018-07-26T22:17:47.121Z,6.93
2018-07-26T22:20:16.166Z,6.50
2018-07-26T22:22:44.328Z,6.60
2018-07-26T22:25:12.418Z,7.27
2018-07-26T22:27:40.649Z,6.80
2018-07-26T22:30:09.204Z,5.30
2018-07-26T22:32:38.309Z,6.73
2018-07-26T22:35:06.880Z,5.27
2018-07-26T22:37:37.216Z,7.00
2018-07-26T22:40:05.776Z,7.10
2018-07-26T22:42:34.626Z,7.30
2018-07-26T22:45:04.086Z,6.97
2018-07-26T22:47:32.659Z,7.00
2018-07-26T22:50:00.634Z,6.20
2018-07-26T22:52:29.949Z,6.93
2018-07-26T22:54:58.365Z,6.40
2018-07-26T22:57:26.577Z,6.77
2018-07-26T22:59:55.273Z,6.70
2018-07-26T23:02:23.280Z,5.60
2018-07-26T23:04:51.420Z,6.27
2018-07-26T23:07:19.728Z,6.90
2018-07-26T23:09:47.869Z,7.10
2018-07-26T23:12:15.908Z,6.90
2018-07-26T23:14:43.937Z,7.80
2018-07-26T23:17:12.243Z,6.17
2018-07-26T23:19:41.203Z,7.33
2018-07-26T23:22:09.386Z,6.93
2018-07-26T23:24:37.729Z,6.30
2018-07-26T23:27:06.069Z,6.20
2018-07-26T23:29:34.223Z,7.33
2018-07-26T23:32:02.306Z,6.80
2018-07-26T23:34:30.310Z,6.90
2018-07-26T23:36:58.526Z,7.13
2018-07-26T23:39:26.821Z,6.60
2018-07-26T23:41:55.783Z,7.07
2018-07-26T23:44:24.188Z,7.40
2018-07-26T23:46:52.445Z,7.20
2018-07-26T23:49:20.725Z,6.17
2018-07-26T23:51:49.245Z,7.40
2018-07-26T23:54:17.371Z,6.90
2018-07-26T23:56:45.382Z,6.80
2018-07-26T23:59:13.924Z,8.17
